sensor_id;sensor_type;location;lat;lon;timestamp;temperature;humidity
3860;DHT22;1945;52.036;8.614;2024-02-21T00:02:22;8.60;1.00
3860;DHT22;1945;52.036;8.614;2024-02-21T00:04:49;8.60;1.00
3860;DHT22;1945;52.036;8.614;2024-02-21T00:07:17;8.60;1.00
3860;DHT22;1945;52.036;8.614;2024-02-21T00:09:44;8.60;1.00
3860;DHT22;1945;52.036;8.614;2024-02-21T00:12:11;8.60;99.90
3860;DHT22;1945;52.036;8.614;2024-02-21T00:14:39;8.60;99.90
3860;DHT22;1945;52.036;8.614;2024-02-21T00:17:06;8.60;99.90
3860;DHT22;1945;52.036;8.614;2024-02-21T00:19:34;8.60;99.90
3860;DHT22;1945;52.036;8.614;2024-02-21T00:22:00;8.60;99.90
3860;DHT22;1945;52.036;8.614;2024-02-21T00:24:28;8.60;99.90
3860;DHT22;1945;52.036;8.614;2024-02-21T00:26:55;8.60;99.90
3860;DHT22;1945;52.036;8.614;2024-02-21T00:29:22;8.60;99.90
3860;DHT22;1945;52.036;8.614;2024-02-21T00:31:49;8.60;99.90
3860;DHT22;1945;52.036;8.614;2024-02-21T00:34:16;8.60;99.90
3860;DHT22;1945;52.036;8.614;2024-02-21T00:36:42;8.60;99.90
3860;DHT22;1945;52.036;8.614;2024-02-21T00:39:09;8.60;99.90
3860;DHT22;1945;52.036;8.614;2024-02-21T00:41:37;8.60;99.90
3860;DHT22;1945;52.036;8.614;2024-02-21T00:44:04;8.60;99.90
3860;DHT22;1945;52.036;8.614;2024-02-21T00:46:31;8.60;99.90
3860;DHT22;1945;52.036;8.614;2024-02-21T00:48:58;8.60;99.90
3860;DHT22;1945;52.036;8.614;2024-02-21T00:51:25;8.60;99.90
3860;DHT22;1945;52.036;8.614;2024-02-21T00:53:51;8.60;99.90
3860;DHT22;1945;52.036;8.614;2024-02-21T00:56:18;8.60;99.90
3860;DHT22;1945;52.036;8.614;2024-02-21T00:58:46;8.60;99.90
3860;DHT22;1945;52.036;8.614;2024-02-21T01:01:12;8.60;99.90
3860;DHT22;1945;52.036;8.614;2024-02-21T01:03:39;8.60;99.90
3860;DHT22;1945;52.036;8.614;2024-02-21T01:06:06;8.60;99.90
3860;DHT22;1945;52.036;8.614;2024-02-21T01:08:33;8.60;99.90
3860;DHT22;1945;52.036;8.614;2024-02-21T01:11:00;8.60;99.90
3860;DHT22;1945;52.036;8.614;2024-02-21T01:13:26;8.70;99.90
3860;DHT22;1945;52.036;8.614;2024-02-21T01:15:54;9.50;99.90
3860;DHT22;1945;52.036;8.614;2024-02-21T01:18:21;8.70;99.90
3860;DHT22;1945;52.036;8.614;2024-02-21T01:20:48;8.70;99.90
3860;DHT22;1945;52.036;8.614;2024-02-21T01:23:14;9.10;99.90
3860;DHT22;1945;52.036;8.614;2024-02-21T01:25:41;8.70;99.90
3860;DHT22;1945;52.036;8.614;2024-02-21T01:28:08;8.70;99.90
3860;DHT22;1945;52.036;8.614;2024-02-21T01:30:34;8.70;99.90
3860;DHT22;1945;52.036;8.614;2024-02-21T01:33:03;8.70;99.90
3860;DHT22;1945;52.036;8.614;2024-02-21T01:35:33;8.70;99.90
3860;DHT22;1945;52.036;8.614;2024-02-21T01:38:00;8.60;99.90
3860;DHT22;1945;52.036;8.614;2024-02-21T01:40:27;8.70;99.90
3860;DHT22;1945;52.036;8.614;2024-02-21T01:42:55;8.60;99.90
3860;DHT22;1945;52.036;8.614;2024-02-21T01:45:22;8.70;99.90
3860;DHT22;1945;52.036;8.614;2024-02-21T01:47:49;8.70;99.90
3860;DHT22;1945;52.036;8.614;2024-02-21T01:50:17;8.70;99.90
3860;DHT22;1945;52.036;8.614;2024-02-21T01:52:46;8.70;99.90
3860;DHT22;1945;52.036;8.614;2024-02-21T01:55:16;8.70;99.90
3860;DHT22;1945;52.036;8.614;2024-02-21T01:57:44;8.70;99.90
3860;DHT22;1945;52.036;8.614;2024-02-21T02:00:13;8.70;99.90
3860;DHT22;1945;52.036;8.614;2024-02-21T02:02:42;8.70;99.90
3860;DHT22;1945;52.036;8.614;2024-02-21T02:05:09;8.70;99.90
3860;DHT22;1945;52.036;8.614;2024-02-21T02:07:38;8.40;99.90
3860;DHT22;1945;52.036;8.614;2024-02-21T02:10:06;8.70;99.90
3860;DHT22;1945;52.036;8.614;2024-02-21T02:12:32;8.70;99.90
3860;DHT22;1945;52.036;8.614;2024-02-21T02:14:59;8.70;99.90
3860;DHT22;1945;52.036;8.614;2024-02-21T02:17:26;8.70;99.90
3860;DHT22;1945;52.036;8.614;2024-02-21T02:19:53;9.10;99.90
3860;DHT22;1945;52.036;8.614;2024-02-21T02:22:22;8.70;99.90
3860;DHT22;1945;52.036;8.614;2024-02-21T02:24:51;8.30;99.90
3860;DHT22;1945;52.036;8.614;2024-02-21T02:27:18;8.70;99.90
3860;DHT22;1945;52.036;8.614;2024-02-21T02:29:44;8.70;99.90
3860;DHT22;1945;52.036;8.614;2024-02-21T02:32:11;8.70;99.90
3860;DHT22;1945;52.036;8.614;2024-02-21T02:34:38;8.70;99.90
3860;DHT22;1945;52.036;8.614;2024-02-21T02:37:05;8.70;99.90
3860;DHT22;1945;52.036;8.614;2024-02-21T02:39:31;8.70;99.90
3860;DHT22;1945;52.036;8.614;2024-02-21T02:41:59;8.70;99.90
3860;DHT22;1945;52.036;8.614;2024-02-21T02:44:26;8.70;99.90
3860;DHT22;1945;52.036;8.614;2024-02-21T02:46:53;8.70;99.90
3860;DHT22;1945;52.036;8.614;2024-02-21T02:49:19;8.60;99.90
3860;DHT22;1945;52.036;8.614;2024-02-21T02:51:46;8.70;99.90
3860;DHT22;1945;52.036;8.614;2024-02-21T02:54:13;8.70;99.90
3860;DHT22;1945;52.036;8.614;2024-02-21T02:56:39;8.70;99.90
3860;DHT22;1945;52.036;8.614;2024-02-21T02:59:07;8.70;99.90
3860;DHT22;1945;52.036;8.614;2024-02-21T03:01:34;8.70;99.90
3860;DHT22;1945;52.036;8.614;2024-02-21T03:04:01;8.70;99.90
3860;DHT22;1945;52.036;8.614;2024-02-21T03:06:28;8.70;99.90
3860;DHT22;1945;52.036;8.614;2024-02-21T03:08:55;8.70;99.90
3860;DHT22;1945;52.036;8.614;2024-02-21T03:11:21;8.70;99.90
3860;DHT22;1945;52.036;8.614;2024-02-21T03:13:54;8.70;99.90
3860;DHT22;1945;52.036;8.614;2024-02-21T03:16:22;8.70;99.90
3860;DHT22;1945;52.036;8.614;2024-02-21T03:18:49;8.70;99.90
3860;DHT22;1945;52.036;8.614;2024-02-21T03:21:15;8.70;99.90
3860;DHT22;1945;52.036;8.614;2024-02-21T03:23:42;8.60;99.90
3860;DHT22;1945;52.036;8.614;2024-02-21T03:26:08;8.60;99.90
3860;DHT22;1945;52.036;8.614;2024-02-21T03:28:35;8.60;99.90
3860;DHT22;1945;52.036;8.614;2024-02-21T03:31:02;8.70;99.90
3860;DHT22;1945;52.036;8.614;2024-02-21T03:33:30;8.60;99.90
3860;DHT22;1945;52.036;8.614;2024-02-21T03:35:57;8.60;99.90
3860;DHT22;1945;52.036;8.614;2024-02-21T03:38:23;8.60;99.90
3860;DHT22;1945;52.036;8.614;2024-02-21T03:40:50;8.60;99.90
3860;DHT22;1945;52.036;8.614;2024-02-21T03:43:17;8.60;99.90
3860;DHT22;1945;52.036;8.614;2024-02-21T03:45:44;8.60;99.90
3860;DHT22;1945;52.036;8.614;2024-02-21T03:48:10;8.60;99.90
3860;DHT22;1945;52.036;8.614;2024-02-21T03:50:38;8.60;99.90
3860;DHT22;1945;52.036;8.614;2024-02-21T03:53:05;8.60;99.90
3860;DHT22;1945;52.036;8.614;2024-02-21T03:55:32;8.60;99.90
3860;DHT22;1945;52.036;8.614;2024-02-21T03:57:58;8.60;99.90
3860;DHT22;1945;52.036;8.614;2024-02-21T04:00:25;8.60;99.90
3860;DHT22;1945;52.036;8.614;2024-02-21T04:02:51;8.60;99.90
3860;DHT22;1945;52.036;8.614;2024-02-21T04:05:18;8.70;99.90
3860;DHT22;1945;52.036;8.614;2024-02-21T04:07:46;8.70;99.90
3860;DHT22;1945;52.036;8.614;2024-02-21T04:10:13;8.70;99.90
3860;DHT22;1945;52.036;8.614;2024-02-21T04:12:40;8.70;99.90
3860;DHT22;1945;52.036;8.614;2024-02-21T04:15:07;8.70;99.90
3860;DHT22;1945;52.036;8.614;2024-02-21T04:17:34;8.70;99.90
3860;DHT22;1945;52.036;8.614;2024-02-21T04:20:05;8.70;99.90
3860;DHT22;1945;52.036;8.614;2024-02-21T04:22:33;8.70;99.90
3860;DHT22;1945;52.036;8.614;2024-02-21T04:25:01;8.70;99.90
3860;DHT22;1945;52.036;8.614;2024-02-21T04:27:27;8.70;99.90
3860;DHT22;1945;52.036;8.614;2024-02-21T04:29:54;8.70;99.90
3860;DHT22;1945;52.036;8.614;2024-02-21T04:32:21;8.70;99.90
3860;DHT22;1945;52.036;8.614;2024-02-21T04:34:48;8.70;99.90
3860;DHT22;1945;52.036;8.614;2024-02-21T04:37:14;8.70;99.90
3860;DHT22;1945;52.036;8.614;2024-02-21T04:39:41;8.70;99.90
3860;DHT22;1945;52.036;8.614;2024-02-21T04:42:09;8.70;99.90
3860;DHT22;1945;52.036;8.614;2024-02-21T04:44:36;8.70;99.90
3860;DHT22;1945;52.036;8.614;2024-02-21T04:47:03;8.70;99.90
3860;DHT22;1945;52.036;8.614;2024-02-21T04:49:30;8.70;99.90
3860;DHT22;1945;52.036;8.614;2024-02-21T04:51:57;8.70;99.90
3860;DHT22;1945;52.036;8.614;2024-02-21T04:54:23;8.70;99.90
3860;DHT22;1945;52.036;8.614;2024-02-21T04:56:50;8.70;99.90
3860;DHT22;1945;52.036;8.614;2024-02-21T04:59:18;8.70;99.90
3860;DHT22;1945;52.036;8.614;2024-02-21T05:01:45;8.70;99.90
3860;DHT22;1945;52.036;8.614;2024-02-21T05:04:12;8.60;99.90
3860;DHT22;1945;52.036;8.614;2024-02-21T05:06:39;8.60;99.90
3860;DHT22;1945;52.036;8.614;2024-02-21T05:09:05;8.60;99.90
3860;DHT22;1945;52.036;8.614;2024-02-21T05:11:32;8.60;99.90
3860;DHT22;1945;52.036;8.614;2024-02-21T05:13:59;8.60;99.90
3860;DHT22;1945;52.036;8.614;2024-02-21T05:16:27;8.90;99.90
3860;DHT22;1945;52.036;8.614;2024-02-21T05:18:53;8.50;99.90
3860;DHT22;1945;52.036;8.614;2024-02-21T05:21:22;8.90;99.90
3860;DHT22;1945;52.036;8.614;2024-02-21T05:23:49;8.50;99.90
3860;DHT22;1945;52.036;8.614;2024-02-21T05:26:20;8.50;99.90
3860;DHT22;1945;52.036;8.614;2024-02-21T05:28:48;8.50;99.90
3860;DHT22;1945;52.036;8.614;2024-02-21T05:31:14;8.50;99.90
3860;DHT22;1945;52.036;8.614;2024-02-21T05:33:43;8.50;99.90
3860;DHT22;1945;52.036;8.614;2024-02-21T05:36:10;8.50;99.90
3860;DHT22;1945;52.036;8.614;2024-02-21T05:38:36;8.50;99.90
3860;DHT22;1945;52.036;8.614;2024-02-21T05:41:03;8.40;99.90
3860;DHT22;1945;52.036;8.614;2024-02-21T05:43:30;8.40;99.90
3860;DHT22;1945;52.036;8.614;2024-02-21T05:45:57;8.40;99.90
3860;DHT22;1945;52.036;8.614;2024-02-21T05:48:24;8.40;99.90
3860;DHT22;1945;52.036;8.614;2024-02-21T05:50:52;8.40;99.90
3860;DHT22;1945;52.036;8.614;2024-02-21T05:53:19;8.40;99.90
3860;DHT22;1945;52.036;8.614;2024-02-21T05:55:46;8.40;99.90
3860;DHT22;1945;52.036;8.614;2024-02-21T05:58:12;8.40;99.90
3860;DHT22;1945;52.036;8.614;2024-02-21T06:00:39;8.40;99.90
3860;DHT22;1945;52.036;8.614;2024-02-21T06:03:06;8.40;99.90
3860;DHT22;1945;52.036;8.614;2024-02-21T06:05:36;8.40;99.90
3860;DHT22;1945;52.036;8.614;2024-02-21T06:08:05;8.40;99.90
3860;DHT22;1945;52.036;8.614;2024-02-21T06:10:32;8.40;99.90
3860;DHT22;1945;52.036;8.614;2024-02-21T06:12:59;8.40;99.90
3860;DHT22;1945;52.036;8.614;2024-02-21T06:15:25;8.40;99.90
3860;DHT22;1945;52.036;8.614;2024-02-21T06:17:52;8.40;99.90
3860;DHT22;1945;52.036;8.614;2024-02-21T06:20:19;8.40;99.90
3860;DHT22;1945;52.036;8.614;2024-02-21T06:22:45;8.50;99.90
3860;DHT22;1945;52.036;8.614;2024-02-21T06:25:13;8.40;99.90
3860;DHT22;1945;52.036;8.614;2024-02-21T06:27:40;8.40;99.90
3860;DHT22;1945;52.036;8.614;2024-02-21T06:30:07;8.40;99.90
3860;DHT22;1945;52.036;8.614;2024-02-21T06:32:34;8.40;99.90
3860;DHT22;1945;52.036;8.614;2024-02-21T06:35:01;8.40;99.90
3860;DHT22;1945;52.036;8.614;2024-02-21T06:37:28;8.50;99.90
3860;DHT22;1945;52.036;8.614;2024-02-21T06:39:55;8.50;99.90
3860;DHT22;1945;52.036;8.614;2024-02-21T06:42:25;8.40;99.90
3860;DHT22;1945;52.036;8.614;2024-02-21T06:44:52;8.50;99.90
3860;DHT22;1945;52.036;8.614;2024-02-21T06:47:19;8.50;99.90
3860;DHT22;1945;52.036;8.614;2024-02-21T06:49:48;8.50;99.90
3860;DHT22;1945;52.036;8.614;2024-02-21T06:52:16;8.50;99.90
3860;DHT22;1945;52.036;8.614;2024-02-21T06:54:45;8.00;99.90
3860;DHT22;1945;52.036;8.614;2024-02-21T06:57:12;8.50;99.90
3860;DHT22;1945;52.036;8.614;2024-02-21T06:59:40;8.50;99.90
3860;DHT22;1945;52.036;8.614;2024-02-21T07:02:07;8.50;99.90
3860;DHT22;1945;52.036;8.614;2024-02-21T07:04:34;8.50;99.90
3860;DHT22;1945;52.036;8.614;2024-02-21T07:07:01;8.50;99.90
3860;DHT22;1945;52.036;8.614;2024-02-21T07:09:28;8.50;99.90
3860;DHT22;1945;52.036;8.614;2024-02-21T07:11:57;8.60;99.90
3860;DHT22;1945;52.036;8.614;2024-02-21T07:14:24;8.60;99.90
3860;DHT22;1945;52.036;8.614;2024-02-21T07:16:52;8.70;99.90
3860;DHT22;1945;52.036;8.614;2024-02-21T07:19:18;8.60;99.90
3860;DHT22;1945;52.036;8.614;2024-02-21T07:21:45;8.60;99.90
3860;DHT22;1945;52.036;8.614;2024-02-21T07:24:11;8.60;99.90
3860;DHT22;1945;52.036;8.614;2024-02-21T07:26:41;8.60;64.40
3860;DHT22;1945;52.036;8.614;2024-02-21T07:29:08;8.60;32.00
3860;DHT22;1945;52.036;8.614;2024-02-21T07:31:39;9.00;25.90
3860;DHT22;1945;52.036;8.614;2024-02-21T07:34:09;9.00;14.50
3860;DHT22;1945;52.036;8.614;2024-02-21T07:36:36;8.70;10.70
3860;DHT22;1945;52.036;8.614;2024-02-21T07:39:04;8.70;4.30
3860;DHT22;1945;52.036;8.614;2024-02-21T07:41:31;8.70;1.00
3860;DHT22;1945;52.036;8.614;2024-02-21T07:43:59;8.70;5.10
3860;DHT22;1945;52.036;8.614;2024-02-21T07:46:26;8.60;1.00
3860;DHT22;1945;52.036;8.614;2024-02-21T07:48:52;8.70;1.00
3860;DHT22;1945;52.036;8.614;2024-02-21T07:51:20;8.70;1.00
3860;DHT22;1945;52.036;8.614;2024-02-21T07:53:47;8.70;1.00
3860;DHT22;1945;52.036;8.614;2024-02-21T07:56:14;8.80;1.00
3860;DHT22;1945;52.036;8.614;2024-02-21T07:58:41;8.80;1.00
3860;DHT22;1945;52.036;8.614;2024-02-21T08:01:08;8.80;1.00
3860;DHT22;1945;52.036;8.614;2024-02-21T08:03:35;8.80;1.00
3860;DHT22;1945;52.036;8.614;2024-02-21T08:06:03;8.90;1.00
3860;DHT22;1945;52.036;8.614;2024-02-21T08:08:31;8.90;1.00
3860;DHT22;1945;52.036;8.614;2024-02-21T08:10:58;8.90;1.00
3860;DHT22;1945;52.036;8.614;2024-02-21T08:13:24;9.00;1.00
3860;DHT22;1945;52.036;8.614;2024-02-21T08:15:52;9.00;1.00
3860;DHT22;1945;52.036;8.614;2024-02-21T08:18:19;9.00;1.00
3860;DHT22;1945;52.036;8.614;2024-02-21T08:20:46;9.00;1.00
3860;DHT22;1945;52.036;8.614;2024-02-21T08:23:15;9.00;1.00
3860;DHT22;1945;52.036;8.614;2024-02-21T08:25:43;9.10;1.00
3860;DHT22;1945;52.036;8.614;2024-02-21T08:28:10;9.10;1.00
3860;DHT22;1945;52.036;8.614;2024-02-21T08:30:36;9.10;1.00
3860;DHT22;1945;52.036;8.614;2024-02-21T08:33:03;9.20;1.00
3860;DHT22;1945;52.036;8.614;2024-02-21T08:35:30;9.20;1.00
3860;DHT22;1945;52.036;8.614;2024-02-21T08:37:57;9.30;1.00
3860;DHT22;1945;52.036;8.614;2024-02-21T08:40:23;9.40;1.00
3860;DHT22;1945;52.036;8.614;2024-02-21T08:42:51;9.40;1.00
3860;DHT22;1945;52.036;8.614;2024-02-21T08:45:19;9.50;1.00
3860;DHT22;1945;52.036;8.614;2024-02-21T08:47:46;9.70;1.00
3860;DHT22;1945;52.036;8.614;2024-02-21T08:50:12;9.70;1.00
3860;DHT22;1945;52.036;8.614;2024-02-21T08:52:39;9.80;1.00
3860;DHT22;1945;52.036;8.614;2024-02-21T08:55:06;9.80;1.00
3860;DHT22;1945;52.036;8.614;2024-02-21T08:57:33;9.70;1.00
3860;DHT22;1945;52.036;8.614;2024-02-21T09:00:04;9.70;1.00
3860;DHT22;1945;52.036;8.614;2024-02-21T09:02:35;9.80;1.00
3860;DHT22;1945;52.036;8.614;2024-02-21T09:05:03;9.90;1.00
3860;DHT22;1945;52.036;8.614;2024-02-21T09:07:31;9.90;1.00
3860;DHT22;1945;52.036;8.614;2024-02-21T09:09:58;10.00;1.00
3860;DHT22;1945;52.036;8.614;2024-02-21T09:12:24;9.90;1.00
3860;DHT22;1945;52.036;8.614;2024-02-21T09:14:51;9.90;1.00
3860;DHT22;1945;52.036;8.614;2024-02-21T09:17:19;9.90;1.00
3860;DHT22;1945;52.036;8.614;2024-02-21T09:19:46;9.80;1.00
3860;DHT22;1945;52.036;8.614;2024-02-21T09:22:13;9.90;1.00
3860;DHT22;1945;52.036;8.614;2024-02-21T09:24:40;10.00;1.00
3860;DHT22;1945;52.036;8.614;2024-02-21T09:27:07;9.90;1.00
3860;DHT22;1945;52.036;8.614;2024-02-21T09:29:33;10.10;1.00
3860;DHT22;1945;52.036;8.614;2024-02-21T09:32:00;10.20;1.00
3860;DHT22;1945;52.036;8.614;2024-02-21T09:34:29;10.20;1.00
3860;DHT22;1945;52.036;8.614;2024-02-21T09:36:56;10.10;1.00
3860;DHT22;1945;52.036;8.614;2024-02-21T09:39:23;10.20;1.00
3860;DHT22;1945;52.036;8.614;2024-02-21T09:41:53;10.20;1.00
3860;DHT22;1945;52.036;8.614;2024-02-21T09:44:21;10.20;1.00
3860;DHT22;1945;52.036;8.614;2024-02-21T09:46:53;10.40;1.00
3860;DHT22;1945;52.036;8.614;2024-02-21T09:49:31;10.40;1.00
3860;DHT22;1945;52.036;8.614;2024-02-21T09:52:01;10.40;1.00
3860;DHT22;1945;52.036;8.614;2024-02-21T09:54:29;10.40;1.00
3860;DHT22;1945;52.036;8.614;2024-02-21T09:56:56;10.30;1.00
3860;DHT22;1945;52.036;8.614;2024-02-21T09:59:24;10.40;99.90
3860;DHT22;1945;52.036;8.614;2024-02-21T10:01:51;10.50;99.90
3860;DHT22;1945;52.036;8.614;2024-02-21T10:04:17;10.50;99.90
3860;DHT22;1945;52.036;8.614;2024-02-21T10:06:46;10.60;99.90
3860;DHT22;1945;52.036;8.614;2024-02-21T10:09:20;10.70;99.90
3860;DHT22;1945;52.036;8.614;2024-02-21T10:11:48;10.70;99.90
3860;DHT22;1945;52.036;8.614;2024-02-21T10:14:15;10.60;99.90
3860;DHT22;1945;52.036;8.614;2024-02-21T10:16:42;10.60;99.90
3860;DHT22;1945;52.036;8.614;2024-02-21T10:19:16;10.60;99.90
3860;DHT22;1945;52.036;8.614;2024-02-21T10:21:43;10.70;99.90
3860;DHT22;1945;52.036;8.614;2024-02-21T10:24:12;10.70;99.90
3860;DHT22;1945;52.036;8.614;2024-02-21T10:26:38;10.60;99.90
3860;DHT22;1945;52.036;8.614;2024-02-21T10:29:05;10.70;99.90
3860;DHT22;1945;52.036;8.614;2024-02-21T10:31:32;10.80;99.90
3860;DHT22;1945;52.036;8.614;2024-02-21T10:33:59;10.80;99.90
3860;DHT22;1945;52.036;8.614;2024-02-21T10:36:28;10.70;99.90
3860;DHT22;1945;52.036;8.614;2024-02-21T10:38:55;10.70;99.90
3860;DHT22;1945;52.036;8.614;2024-02-21T10:41:24;10.60;99.90
3860;DHT22;1945;52.036;8.614;2024-02-21T10:43:53;10.60;99.90
3860;DHT22;1945;52.036;8.614;2024-02-21T10:46:21;10.60;99.90
3860;DHT22;1945;52.036;8.614;2024-02-21T10:49:01;10.70;99.90
3860;DHT22;1945;52.036;8.614;2024-02-21T10:51:33;10.70;99.90
3860;DHT22;1945;52.036;8.614;2024-02-21T10:54:11;10.70;99.90
3860;DHT22;1945;52.036;8.614;2024-02-21T10:56:41;10.70;99.90
3860;DHT22;1945;52.036;8.614;2024-02-21T10:59:08;10.60;99.90
3860;DHT22;1945;52.036;8.614;2024-02-21T11:01:35;10.10;99.90
3860;DHT22;1945;52.036;8.614;2024-02-21T11:04:04;10.60;99.90
3860;DHT22;1945;52.036;8.614;2024-02-21T11:06:31;10.60;99.90
3860;DHT22;1945;52.036;8.614;2024-02-21T11:09:03;10.60;99.90
3860;DHT22;1945;52.036;8.614;2024-02-21T11:11:32;10.60;99.90
3860;DHT22;1945;52.036;8.614;2024-02-21T11:14:07;10.50;99.90
3860;DHT22;1945;52.036;8.614;2024-02-21T11:16:38;10.50;99.90
3860;DHT22;1945;52.036;8.614;2024-02-21T11:19:07;10.40;99.90
3860;DHT22;1945;52.036;8.614;2024-02-21T11:21:34;10.50;99.90
3860;DHT22;1945;52.036;8.614;2024-02-21T11:24:01;10.50;99.90
3860;DHT22;1945;52.036;8.614;2024-02-21T11:26:29;10.60;99.90
3860;DHT22;1945;52.036;8.614;2024-02-21T11:28:57;10.70;99.90
3860;DHT22;1945;52.036;8.614;2024-02-21T11:31:26;10.70;99.90
3860;DHT22;1945;52.036;8.614;2024-02-21T11:33:53;10.70;99.90
3860;DHT22;1945;52.036;8.614;2024-02-21T11:36:27;10.70;99.90
3860;DHT22;1945;52.036;8.614;2024-02-21T11:38:54;10.80;99.90
3860;DHT22;1945;52.036;8.614;2024-02-21T11:41:20;10.80;99.90
3860;DHT22;1945;52.036;8.614;2024-02-21T11:43:48;10.80;99.90
3860;DHT22;1945;52.036;8.614;2024-02-21T11:46:15;10.70;99.90
3860;DHT22;1945;52.036;8.614;2024-02-21T11:48:43;10.80;99.90
3860;DHT22;1945;52.036;8.614;2024-02-21T11:51:21;10.80;99.90
3860;DHT22;1945;52.036;8.614;2024-02-21T11:53:48;10.80;99.90
3860;DHT22;1945;52.036;8.614;2024-02-21T11:56:14;10.80;99.90
3860;DHT22;1945;52.036;8.614;2024-02-21T11:58:41;10.80;99.90
3860;DHT22;1945;52.036;8.614;2024-02-21T12:01:08;10.70;99.90
3860;DHT22;1945;52.036;8.614;2024-02-21T12:03:35;10.70;99.90
3860;DHT22;1945;52.036;8.614;2024-02-21T12:06:03;10.60;99.90
3860;DHT22;1945;52.036;8.614;2024-02-21T12:08:41;10.60;99.90
3860;DHT22;1945;52.036;8.614;2024-02-21T12:11:16;10.70;99.90
3860;DHT22;1945;52.036;8.614;2024-02-21T12:13:43;10.50;99.90
3860;DHT22;1945;52.036;8.614;2024-02-21T12:16:10;10.50;99.90
3860;DHT22;1945;52.036;8.614;2024-02-21T12:18:36;10.50;99.90
3860;DHT22;1945;52.036;8.614;2024-02-21T12:21:06;10.50;99.90
3860;DHT22;1945;52.036;8.614;2024-02-21T12:23:34;10.40;99.90
3860;DHT22;1945;52.036;8.614;2024-02-21T12:26:00;10.50;99.90
3860;DHT22;1945;52.036;8.614;2024-02-21T12:28:27;10.90;1.00
3860;DHT22;1945;52.036;8.614;2024-02-21T12:30:54;10.60;99.90
3860;DHT22;1945;52.036;8.614;2024-02-21T12:33:21;10.60;99.90
3860;DHT22;1945;52.036;8.614;2024-02-21T12:35:48;10.50;99.90
3860;DHT22;1945;52.036;8.614;2024-02-21T12:38:17;10.60;99.90
3860;DHT22;1945;52.036;8.614;2024-02-21T12:40:46;10.40;99.90
3860;DHT22;1945;52.036;8.614;2024-02-21T12:43:13;10.40;1.00
3860;DHT22;1945;52.036;8.614;2024-02-21T12:45:39;10.50;99.90
3860;DHT22;1945;52.036;8.614;2024-02-21T12:48:07;10.60;1.00
3860;DHT22;1945;52.036;8.614;2024-02-21T12:50:33;10.50;1.00
3860;DHT22;1945;52.036;8.614;2024-02-21T12:53:00;10.50;1.00
3860;DHT22;1945;52.036;8.614;2024-02-21T12:55:29;10.50;1.00
3860;DHT22;1945;52.036;8.614;2024-02-21T12:57:56;10.60;1.00
3860;DHT22;1945;52.036;8.614;2024-02-21T13:00:22;10.60;1.00
3860;DHT22;1945;52.036;8.614;2024-02-21T13:02:53;10.60;1.00
3860;DHT22;1945;52.036;8.614;2024-02-21T13:05:19;10.60;1.00
3860;DHT22;1945;52.036;8.614;2024-02-21T13:07:46;10.50;1.00
3860;DHT22;1945;52.036;8.614;2024-02-21T13:10:14;10.50;1.00
3860;DHT22;1945;52.036;8.614;2024-02-21T13:12:42;10.50;1.00
3860;DHT22;1945;52.036;8.614;2024-02-21T13:15:09;10.50;1.00
3860;DHT22;1945;52.036;8.614;2024-02-21T13:17:37;10.50;1.00
3860;DHT22;1945;52.036;8.614;2024-02-21T13:20:05;10.50;1.00
3860;DHT22;1945;52.036;8.614;2024-02-21T13:22:33;10.60;1.00
3860;DHT22;1945;52.036;8.614;2024-02-21T13:25:00;10.40;1.00
3860;DHT22;1945;52.036;8.614;2024-02-21T13:27:27;10.60;1.00
3860;DHT22;1945;52.036;8.614;2024-02-21T13:29:55;10.60;1.00
3860;DHT22;1945;52.036;8.614;2024-02-21T13:32:21;10.70;1.00
3860;DHT22;1945;52.036;8.614;2024-02-21T13:34:48;10.80;1.00
3860;DHT22;1945;52.036;8.614;2024-02-21T13:37:15;10.80;1.00
3860;DHT22;1945;52.036;8.614;2024-02-21T13:39:42;10.80;1.00
3860;DHT22;1945;52.036;8.614;2024-02-21T13:42:09;10.70;1.00
3860;DHT22;1945;52.036;8.614;2024-02-21T13:44:36;10.70;1.00
3860;DHT22;1945;52.036;8.614;2024-02-21T13:47:05;10.60;1.00
3860;DHT22;1945;52.036;8.614;2024-02-21T13:49:33;10.60;1.00
3860;DHT22;1945;52.036;8.614;2024-02-21T13:52:01;10.60;1.00
3860;DHT22;1945;52.036;8.614;2024-02-21T13:54:27;10.60;1.00
3860;DHT22;1945;52.036;8.614;2024-02-21T13:56:54;10.70;1.00
3860;DHT22;1945;52.036;8.614;2024-02-21T13:59:21;10.60;1.00
3860;DHT22;1945;52.036;8.614;2024-02-21T14:01:47;10.50;99.90
3860;DHT22;1945;52.036;8.614;2024-02-21T14:04:15;10.50;99.90
3860;DHT22;1945;52.036;8.614;2024-02-21T14:06:42;10.50;99.90
3860;DHT22;1945;52.036;8.614;2024-02-21T14:09:09;10.60;99.90
3860;DHT22;1945;52.036;8.614;2024-02-21T14:11:39;10.70;99.90
3860;DHT22;1945;52.036;8.614;2024-02-21T14:14:06;10.60;99.90
3860;DHT22;1945;52.036;8.614;2024-02-21T14:16:33;10.60;99.90
3860;DHT22;1945;52.036;8.614;2024-02-21T14:19:00;10.50;99.90
3860;DHT22;1945;52.036;8.614;2024-02-21T14:21:28;10.50;99.90
3860;DHT22;1945;52.036;8.614;2024-02-21T14:23:55;10.40;99.90
3860;DHT22;1945;52.036;8.614;2024-02-21T14:26:22;10.50;99.90
3860;DHT22;1945;52.036;8.614;2024-02-21T14:28:48;10.50;99.90
3860;DHT22;1945;52.036;8.614;2024-02-21T14:31:15;10.60;99.90
3860;DHT22;1945;52.036;8.614;2024-02-21T14:33:42;10.60;99.90
3860;DHT22;1945;52.036;8.614;2024-02-21T14:36:09;10.70;99.90
3860;DHT22;1945;52.036;8.614;2024-02-21T14:38:38;10.70;99.90
3860;DHT22;1945;52.036;8.614;2024-02-21T14:41:05;10.70;99.90
3860;DHT22;1945;52.036;8.614;2024-02-21T14:43:32;10.70;99.90
3860;DHT22;1945;52.036;8.614;2024-02-21T14:46:00;10.70;99.90
3860;DHT22;1945;52.036;8.614;2024-02-21T14:48:28;10.70;99.90
3860;DHT22;1945;52.036;8.614;2024-02-21T14:50:55;10.70;99.90
3860;DHT22;1945;52.036;8.614;2024-02-21T14:53:22;10.70;99.90
3860;DHT22;1945;52.036;8.614;2024-02-21T14:55:49;10.70;99.90
3860;DHT22;1945;52.036;8.614;2024-02-21T14:58:16;10.80;99.90
3860;DHT22;1945;52.036;8.614;2024-02-21T15:00:44;10.80;99.90
3860;DHT22;1945;52.036;8.614;2024-02-21T15:03:12;10.80;99.90
3860;DHT22;1945;52.036;8.614;2024-02-21T15:05:40;10.70;99.90
3860;DHT22;1945;52.036;8.614;2024-02-21T15:08:07;10.60;99.90
3860;DHT22;1945;52.036;8.614;2024-02-21T15:10:35;10.60;99.90
3860;DHT22;1945;52.036;8.614;2024-02-21T15:13:04;10.60;99.90
3860;DHT22;1945;52.036;8.614;2024-02-21T15:15:31;10.60;99.90
3860;DHT22;1945;52.036;8.614;2024-02-21T15:17:57;10.60;99.90
3860;DHT22;1945;52.036;8.614;2024-02-21T15:20:24;10.60;99.90
3860;DHT22;1945;52.036;8.614;2024-02-21T15:22:51;10.60;99.90
3860;DHT22;1945;52.036;8.614;2024-02-21T15:25:18;10.60;99.90
3860;DHT22;1945;52.036;8.614;2024-02-21T15:27:45;10.60;99.90
3860;DHT22;1945;52.036;8.614;2024-02-21T15:30:13;10.60;99.90
3860;DHT22;1945;52.036;8.614;2024-02-21T15:32:40;10.60;99.90
3860;DHT22;1945;52.036;8.614;2024-02-21T15:35:09;10.60;99.90
3860;DHT22;1945;52.036;8.614;2024-02-21T15:37:36;10.60;99.90
3860;DHT22;1945;52.036;8.614;2024-02-21T15:40:04;10.60;99.90
3860;DHT22;1945;52.036;8.614;2024-02-21T15:42:33;10.60;99.90
3860;DHT22;1945;52.036;8.614;2024-02-21T15:45:00;10.50;99.90
3860;DHT22;1945;52.036;8.614;2024-02-21T15:47:31;10.50;99.90
3860;DHT22;1945;52.036;8.614;2024-02-21T15:49:58;10.50;99.90
3860;DHT22;1945;52.036;8.614;2024-02-21T15:52:26;10.50;99.90
3860;DHT22;1945;52.036;8.614;2024-02-21T15:54:52;10.50;99.90
3860;DHT22;1945;52.036;8.614;2024-02-21T15:57:19;10.50;99.90
3860;DHT22;1945;52.036;8.614;2024-02-21T15:59:46;10.40;99.90
3860;DHT22;1945;52.036;8.614;2024-02-21T16:02:19;10.40;99.90
3860;DHT22;1945;52.036;8.614;2024-02-21T16:04:47;10.40;99.90
3860;DHT22;1945;52.036;8.614;2024-02-21T16:07:14;10.30;99.90
3860;DHT22;1945;52.036;8.614;2024-02-21T16:09:40;10.30;99.90
3860;DHT22;1945;52.036;8.614;2024-02-21T16:12:18;10.20;99.90
3860;DHT22;1945;52.036;8.614;2024-02-21T16:14:45;10.20;99.90
3860;DHT22;1945;52.036;8.614;2024-02-21T16:17:16;10.20;99.90